sensor_id;sensor_type;location;lat;lon;timestamp;temperature;humidity
20526;DHT22;10421;49.142;9.232;2023-04-25T00:00:36;12.90;96.00
20526;DHT22;10421;49.142;9.232;2023-04-25T00:03:02;12.80;96.00
20526;DHT22;10421;49.142;9.232;2023-04-25T00:05:30;12.70;96.10
20526;DHT22;10421;49.142;9.232;2023-04-25T00:07:57;12.60;96.30
20526;DHT22;10421;49.142;9.232;2023-04-25T00:10:25;12.60;96.30
20526;DHT22;10421;49.142;9.232;2023-04-25T00:12:52;12.60;96.40
20526;DHT22;10421;49.142;9.232;2023-04-25T00:15:19;12.60;96.40
20526;DHT22;10421;49.142;9.232;2023-04-25T00:17:46;12.50;96.40
20526;DHT22;10421;49.142;9.232;2023-04-25T00:20:13;12.50;96.60
20526;DHT22;10421;49.142;9.232;2023-04-25T00:22:41;12.30;96.90
20526;DHT22;10421;49.142;9.232;2023-04-25T00:25:08;12.30;97.00
20526;DHT22;10421;49.142;9.232;2023-04-25T00:27:36;12.30;97.00
20526;DHT22;10421;49.142;9.232;2023-04-25T00:30:05;12.20;97.00
20526;DHT22;10421;49.142;9.232;2023-04-25T00:32:32;12.20;97.00
20526;DHT22;10421;49.142;9.232;2023-04-25T00:34:59;12.30;96.70
20526;DHT22;10421;49.142;9.232;2023-04-25T00:37:26;12.20;96.30
20526;DHT22;10421;49.142;9.232;2023-04-25T00:39:53;12.10;96.20
20526;DHT22;10421;49.142;9.232;2023-04-25T00:42:21;12.10;96.30
20526;DHT22;10421;49.142;9.232;2023-04-25T00:44:50;12.10;96.10
20526;DHT22;10421;49.142;9.232;2023-04-25T00:47:18;12.00;96.30
20526;DHT22;10421;49.142;9.232;2023-04-25T00:49:45;12.00;96.30
20526;DHT22;10421;49.142;9.232;2023-04-25T00:52:11;12.10;96.30
20526;DHT22;10421;49.142;9.232;2023-04-25T00:54:38;12.10;96.20
20526;DHT22;10421;49.142;9.232;2023-04-25T00:57:06;12.00;96.20
20526;DHT22;10421;49.142;9.232;2023-04-25T00:59:33;12.10;96.20
20526;DHT22;10421;49.142;9.232;2023-04-25T01:02:02;12.20;96.10
20526;DHT22;10421;49.142;9.232;2023-04-25T01:04:29;12.20;96.00
20526;DHT22;10421;49.142;9.232;2023-04-25T01:06:56;12.10;95.90
20526;DHT22;10421;49.142;9.232;2023-04-25T01:09:24;12.10;96.00
20526;DHT22;10421;49.142;9.232;2023-04-25T01:11:51;12.20;96.00
20526;DHT22;10421;49.142;9.232;2023-04-25T01:14:18;12.20;95.90
20526;DHT22;10421;49.142;9.232;2023-04-25T01:16:44;12.20;95.90
20526;DHT22;10421;49.142;9.232;2023-04-25T01:19:16;12.20;96.00
20526;DHT22;10421;49.142;9.232;2023-04-25T01:21:45;12.20;96.00
20526;DHT22;10421;49.142;9.232;2023-04-25T01:24:12;12.20;96.00
20526;DHT22;10421;49.142;9.232;2023-04-25T01:26:39;12.30;95.90
20526;DHT22;10421;49.142;9.232;2023-04-25T01:29:10;12.20;96.00
20526;DHT22;10421;49.142;9.232;2023-04-25T01:31:37;12.20;96.10
20526;DHT22;10421;49.142;9.232;2023-04-25T01:34:04;12.20;96.10
20526;DHT22;10421;49.142;9.232;2023-04-25T01:36:30;12.20;96.20
20526;DHT22;10421;49.142;9.232;2023-04-25T01:38:59;12.10;96.30
20526;DHT22;10421;49.142;9.232;2023-04-25T01:41:26;11.90;96.50
20526;DHT22;10421;49.142;9.232;2023-04-25T01:43:53;11.90;96.80
20526;DHT22;10421;49.142;9.232;2023-04-25T01:46:20;12.00;96.60
20526;DHT22;10421;49.142;9.232;2023-04-25T01:48:47;12.00;96.50
20526;DHT22;10421;49.142;9.232;2023-04-25T01:51:14;12.00;96.90
20526;DHT22;10421;49.142;9.232;2023-04-25T01:53:42;11.90;96.70
20526;DHT22;10421;49.142;9.232;2023-04-25T01:56:10;11.90;96.70
20526;DHT22;10421;49.142;9.232;2023-04-25T01:58:37;11.90;96.80
20526;DHT22;10421;49.142;9.232;2023-04-25T02:01:04;11.90;96.70
20526;DHT22;10421;49.142;9.232;2023-04-25T02:03:31;12.00;96.70
20526;DHT22;10421;49.142;9.232;2023-04-25T02:05:58;11.90;96.50
20526;DHT22;10421;49.142;9.232;2023-04-25T02:08:24;12.00;96.50
20526;DHT22;10421;49.142;9.232;2023-04-25T02:10:52;11.90;96.40
20526;DHT22;10421;49.142;9.232;2023-04-25T02:13:20;12.00;96.30
20526;DHT22;10421;49.142;9.232;2023-04-25T02:15:46;12.00;96.10
20526;DHT22;10421;49.142;9.232;2023-04-25T02:18:13;12.00;96.00
20526;DHT22;10421;49.142;9.232;2023-04-25T02:20:41;12.00;95.90
20526;DHT22;10421;49.142;9.232;2023-04-25T02:23:08;12.10;96.00
20526;DHT22;10421;49.142;9.232;2023-04-25T02:25:35;12.10;95.80
20526;DHT22;10421;49.142;9.232;2023-04-25T02:28:02;12.10;95.70
20526;DHT22;10421;49.142;9.232;2023-04-25T02:30:30;12.10;95.70
20526;DHT22;10421;49.142;9.232;2023-04-25T02:32:57;12.20;95.60
20526;DHT22;10421;49.142;9.232;2023-04-25T02:35:23;12.30;95.60
20526;DHT22;10421;49.142;9.232;2023-04-25T02:37:50;12.30;95.60
20526;DHT22;10421;49.142;9.232;2023-04-25T02:40:17;12.30;95.50
20526;DHT22;10421;49.142;9.232;2023-04-25T02:42:43;12.30;95.50
20526;DHT22;10421;49.142;9.232;2023-04-25T02:45:11;12.40;95.50
20526;DHT22;10421;49.142;9.232;2023-04-25T02:47:39;12.40;95.40
20526;DHT22;10421;49.142;9.232;2023-04-25T02:50:07;12.40;95.20
20526;DHT22;10421;49.142;9.232;2023-04-25T02:52:33;12.40;95.20
20526;DHT22;10421;49.142;9.232;2023-04-25T02:55:00;12.40;95.20
20526;DHT22;10421;49.142;9.232;2023-04-25T02:57:27;12.40;95.30
20526;DHT22;10421;49.142;9.232;2023-04-25T02:59:54;12.40;95.30
20526;DHT22;10421;49.142;9.232;2023-04-25T03:02:20;12.40;95.30
20526;DHT22;10421;49.142;9.232;2023-04-25T03:04:49;12.40;95.30
20526;DHT22;10421;49.142;9.232;2023-04-25T03:07:15;12.40;95.30
20526;DHT22;10421;49.142;9.232;2023-04-25T03:09:42;12.20;95.40
20526;DHT22;10421;49.142;9.232;2023-04-25T03:12:08;12.20;95.40
20526;DHT22;10421;49.142;9.232;2023-04-25T03:14:35;12.20;95.50
20526;DHT22;10421;49.142;9.232;2023-04-25T03:17:02;12.20;95.40
20526;DHT22;10421;49.142;9.232;2023-04-25T03:19:29;12.20;95.50
20526;DHT22;10421;49.142;9.232;2023-04-25T03:21:57;12.20;95.60
20526;DHT22;10421;49.142;9.232;2023-04-25T03:24:23;12.20;95.50
20526;DHT22;10421;49.142;9.232;2023-04-25T03:26:54;12.30;95.50
20526;DHT22;10421;49.142;9.232;2023-04-25T03:29:21;12.30;95.40
20526;DHT22;10421;49.142;9.232;2023-04-25T03:31:51;12.30;95.30
20526;DHT22;10421;49.142;9.232;2023-04-25T03:34:17;12.40;95.30
20526;DHT22;10421;49.142;9.232;2023-04-25T03:36:44;12.40;95.20
20526;DHT22;10421;49.142;9.232;2023-04-25T03:39:12;12.40;95.20
20526;DHT22;10421;49.142;9.232;2023-04-25T03:41:39;12.30;95.20
20526;DHT22;10421;49.142;9.232;2023-04-25T03:44:06;12.40;95.50
20526;DHT22;10421;49.142;9.232;2023-04-25T03:46:32;12.40;95.60
20526;DHT22;10421;49.142;9.232;2023-04-25T03:48:59;12.50;95.80
20526;DHT22;10421;49.142;9.232;2023-04-25T03:51:26;12.50;95.80
20526;DHT22;10421;49.142;9.232;2023-04-25T03:53:52;12.50;95.90
20526;DHT22;10421;49.142;9.232;2023-04-25T03:56:20;12.50;95.90
20526;DHT22;10421;49.142;9.232;2023-04-25T03:58:47;12.50;95.90
20526;DHT22;10421;49.142;9.232;2023-04-25T04:01:14;12.40;95.80
20526;DHT22;10421;49.142;9.232;2023-04-25T04:03:41;12.40;95.90
20526;DHT22;10421;49.142;9.232;2023-04-25T04:06:08;12.40;95.90
20526;DHT22;10421;49.142;9.232;2023-04-25T04:08:36;12.40;96.00
20526;DHT22;10421;49.142;9.232;2023-04-25T04:11:03;12.30;96.40
20526;DHT22;10421;49.142;9.232;2023-04-25T04:13:31;12.30;96.30
20526;DHT22;10421;49.142;9.232;2023-04-25T04:15:58;12.30;96.40
20526;DHT22;10421;49.142;9.232;2023-04-25T04:18:25;12.20;96.50
20526;DHT22;10421;49.142;9.232;2023-04-25T04:20:52;12.20;96.60
20526;DHT22;10421;49.142;9.232;2023-04-25T04:23:19;12.20;96.70
20526;DHT22;10421;49.142;9.232;2023-04-25T04:25:46;12.20;96.80
20526;DHT22;10421;49.142;9.232;2023-04-25T04:28:13;12.20;96.90
20526;DHT22;10421;49.142;9.232;2023-04-25T04:30:42;12.20;97.10
20526;DHT22;10421;49.142;9.232;2023-04-25T04:33:12;12.20;97.00
20526;DHT22;10421;49.142;9.232;2023-04-25T04:35:40;12.20;97.00
20526;DHT22;10421;49.142;9.232;2023-04-25T04:38:08;12.20;97.10
20526;DHT22;10421;49.142;9.232;2023-04-25T04:40:36;12.10;97.10
20526;DHT22;10421;49.142;9.232;2023-04-25T04:43:03;12.10;97.30
20526;DHT22;10421;49.142;9.232;2023-04-25T04:45:30;12.10;97.50
20526;DHT22;10421;49.142;9.232;2023-04-25T04:47:58;12.00;97.60
20526;DHT22;10421;49.142;9.232;2023-04-25T04:50:25;12.00;97.70
20526;DHT22;10421;49.142;9.232;2023-04-25T04:52:52;11.90;97.80
20526;DHT22;10421;49.142;9.232;2023-04-25T04:55:20;12.00;97.90
20526;DHT22;10421;49.142;9.232;2023-04-25T04:57:47;12.00;98.00
20526;DHT22;10421;49.142;9.232;2023-04-25T05:00:15;12.00;98.10
20526;DHT22;10421;49.142;9.232;2023-04-25T05:02:42;12.10;98.20
20526;DHT22;10421;49.142;9.232;2023-04-25T05:05:10;12.10;98.10
20526;DHT22;10421;49.142;9.232;2023-04-25T05:07:36;12.10;98.10
20526;DHT22;10421;49.142;9.232;2023-04-25T05:10:04;12.10;98.10
20526;DHT22;10421;49.142;9.232;2023-04-25T05:12:31;12.00;98.00
20526;DHT22;10421;49.142;9.232;2023-04-25T05:14:57;12.10;98.10
20526;DHT22;10421;49.142;9.232;2023-04-25T05:17:24;12.10;98.20
20526;DHT22;10421;49.142;9.232;2023-04-25T05:19:51;12.00;98.20
20526;DHT22;10421;49.142;9.232;2023-04-25T05:22:19;12.00;98.30
20526;DHT22;10421;49.142;9.232;2023-04-25T05:24:46;12.10;98.40
20526;DHT22;10421;49.142;9.232;2023-04-25T05:27:15;12.00;98.30
20526;DHT22;10421;49.142;9.232;2023-04-25T05:29:42;12.00;98.40
20526;DHT22;10421;49.142;9.232;2023-04-25T05:32:09;12.00;98.50
20526;DHT22;10421;49.142;9.232;2023-04-25T05:34:36;12.10;98.50
20526;DHT22;10421;49.142;9.232;2023-04-25T05:37:03;12.10;98.60
20526;DHT22;10421;49.142;9.232;2023-04-25T05:39:31;12.10;98.50
20526;DHT22;10421;49.142;9.232;2023-04-25T05:41:58;12.10;98.40
20526;DHT22;10421;49.142;9.232;2023-04-25T05:44:25;12.00;98.10
20526;DHT22;10421;49.142;9.232;2023-04-25T05:46:52;12.00;98.20
20526;DHT22;10421;49.142;9.232;2023-04-25T05:49:18;11.90;98.50
20526;DHT22;10421;49.142;9.232;2023-04-25T05:51:45;11.70;98.40
20526;DHT22;10421;49.142;9.232;2023-04-25T05:54:12;11.70;98.60
20526;DHT22;10421;49.142;9.232;2023-04-25T05:56:40;11.60;98.80
20526;DHT22;10421;49.142;9.232;2023-04-25T05:59:06;11.60;98.80
20526;DHT22;10421;49.142;9.232;2023-04-25T06:01:33;11.70;98.80
20526;DHT22;10421;49.142;9.232;2023-04-25T06:04:00;11.70;98.70
20526;DHT22;10421;49.142;9.232;2023-04-25T06:06:27;11.70;98.70
20526;DHT22;10421;49.142;9.232;2023-04-25T06:08:53;11.80;98.80
20526;DHT22;10421;49.142;9.232;2023-04-25T06:11:20;11.80;98.70
20526;DHT22;10421;49.142;9.232;2023-04-25T06:13:48;12.00;98.70
20526;DHT22;10421;49.142;9.232;2023-04-25T06:16:17;12.00;98.60
20526;DHT22;10421;49.142;9.232;2023-04-25T06:18:46;12.10;98.60
20526;DHT22;10421;49.142;9.232;2023-04-25T06:21:13;12.10;98.50
20526;DHT22;10421;49.142;9.232;2023-04-25T06:23:39;12.20;98.50
20526;DHT22;10421;49.142;9.232;2023-04-25T06:26:06;12.30;98.50
20526;DHT22;10421;49.142;9.232;2023-04-25T06:28:33;12.30;98.40
20526;DHT22;10421;49.142;9.232;2023-04-25T06:31:01;12.40;98.40
20526;DHT22;10421;49.142;9.232;2023-04-25T06:33:28;12.40;98.30
20526;DHT22;10421;49.142;9.232;2023-04-25T06:35:55;12.40;98.20
20526;DHT22;10421;49.142;9.232;2023-04-25T06:38:22;12.40;98.20
20526;DHT22;10421;49.142;9.232;2023-04-25T06:40:49;12.50;98.50
20526;DHT22;10421;49.142;9.232;2023-04-25T06:43:16;12.50;98.20
20526;DHT22;10421;49.142;9.232;2023-04-25T06:45:43;12.60;98.20
20526;DHT22;10421;49.142;9.232;2023-04-25T06:48:11;12.60;98.20
20526;DHT22;10421;49.142;9.232;2023-04-25T06:50:38;12.70;98.20
20526;DHT22;10421;49.142;9.232;2023-04-25T06:53:14;12.60;98.20
20526;DHT22;10421;49.142;9.232;2023-04-25T06:55:40;12.60;98.20
20526;DHT22;10421;49.142;9.232;2023-04-25T06:58:07;12.70;98.20
20526;DHT22;10421;49.142;9.232;2023-04-25T07:00:34;12.70;98.20
20526;DHT22;10421;49.142;9.232;2023-04-25T07:03:01;12.70;98.30
20526;DHT22;10421;49.142;9.232;2023-04-25T07:05:29;12.70;98.30
20526;DHT22;10421;49.142;9.232;2023-04-25T07:07:56;12.80;98.40
20526;DHT22;10421;49.142;9.232;2023-04-25T07:10:23;12.90;98.40
20526;DHT22;10421;49.142;9.232;2023-04-25T07:12:50;12.80;98.20
20526;DHT22;10421;49.142;9.232;2023-04-25T07:15:17;12.90;98.10
20526;DHT22;10421;49.142;9.232;2023-04-25T07:17:44;12.90;98.00
20526;DHT22;10421;49.142;9.232;2023-04-25T07:20:11;13.00;98.00
20526;DHT22;10421;49.142;9.232;2023-04-25T07:22:39;13.10;98.00
20526;DHT22;10421;49.142;9.232;2023-04-25T07:25:07;13.20;97.90
20526;DHT22;10421;49.142;9.232;2023-04-25T07:27:34;13.20;97.80
20526;DHT22;10421;49.142;9.232;2023-04-25T07:30:01;13.20;97.60
20526;DHT22;10421;49.142;9.232;2023-04-25T07:32:29;13.30;97.60
20526;DHT22;10421;49.142;9.232;2023-04-25T07:34:56;13.30;97.50
20526;DHT22;10421;49.142;9.232;2023-04-25T07:37:22;13.30;97.40
20526;DHT22;10421;49.142;9.232;2023-04-25T07:39:51;13.40;97.40
20526;DHT22;10421;49.142;9.232;2023-04-25T07:42:18;13.40;97.20
20526;DHT22;10421;49.142;9.232;2023-04-25T07:44:45;13.40;97.10
20526;DHT22;10421;49.142;9.232;2023-04-25T07:47:12;13.40;97.00
20526;DHT22;10421;49.142;9.232;2023-04-25T07:49:39;13.40;96.90
20526;DHT22;10421;49.142;9.232;2023-04-25T07:52:06;13.40;96.70
20526;DHT22;10421;49.142;9.232;2023-04-25T07:54:33;13.40;96.70
20526;DHT22;10421;49.142;9.232;2023-04-25T07:57:01;13.40;96.60
20526;DHT22;10421;49.142;9.232;2023-04-25T07:59:28;13.40;96.50
20526;DHT22;10421;49.142;9.232;2023-04-25T08:01:55;13.40;96.40
20526;DHT22;10421;49.142;9.232;2023-04-25T08:04:22;13.40;96.30
20526;DHT22;10421;49.142;9.232;2023-04-25T08:06:50;13.40;96.20
20526;DHT22;10421;49.142;9.232;2023-04-25T08:09:17;13.40;96.10
20526;DHT22;10421;49.142;9.232;2023-04-25T08:11:48;13.40;96.00
20526;DHT22;10421;49.142;9.232;2023-04-25T08:14:16;13.40;95.80
20526;DHT22;10421;49.142;9.232;2023-04-25T08:16:43;13.40;95.70
20526;DHT22;10421;49.142;9.232;2023-04-25T08:19:10;13.40;95.40
20526;DHT22;10421;49.142;9.232;2023-04-25T08:21:37;13.40;95.40
20526;DHT22;10421;49.142;9.232;2023-04-25T08:24:04;13.40;95.30
20526;DHT22;10421;49.142;9.232;2023-04-25T08:26:31;13.40;95.20
20526;DHT22;10421;49.142;9.232;2023-04-25T08:28:59;13.40;95.10
20526;DHT22;10421;49.142;9.232;2023-04-25T08:31:28;13.50;95.10
20526;DHT22;10421;49.142;9.232;2023-04-25T08:33:54;13.50;95.10
20526;DHT22;10421;49.142;9.232;2023-04-25T08:36:21;13.50;95.10
20526;DHT22;10421;49.142;9.232;2023-04-25T08:38:48;13.60;95.10
20526;DHT22;10421;49.142;9.232;2023-04-25T08:41:15;13.60;95.10
20526;DHT22;10421;49.142;9.232;2023-04-25T08:43:43;13.60;95.10
20526;DHT22;10421;49.142;9.232;2023-04-25T08:46:11;13.70;95.10
20526;DHT22;10421;49.142;9.232;2023-04-25T08:48:40;13.70;95.00
20526;DHT22;10421;49.142;9.232;2023-04-25T08:51:10;13.70;95.00
20526;DHT22;10421;49.142;9.232;2023-04-25T08:53:38;13.80;95.00
20526;DHT22;10421;49.142;9.232;2023-04-25T08:56:08;13.80;94.90
20526;DHT22;10421;49.142;9.232;2023-04-25T08:58:38;13.80;94.80
20526;DHT22;10421;49.142;9.232;2023-04-25T09:01:06;13.90;94.70
20526;DHT22;10421;49.142;9.232;2023-04-25T09:03:33;14.00;94.70
20526;DHT22;10421;49.142;9.232;2023-04-25T09:06:02;14.10;94.60
20526;DHT22;10421;49.142;9.232;2023-04-25T09:08:29;14.10;94.40
20526;DHT22;10421;49.142;9.232;2023-04-25T09:10:56;14.20;94.40
20526;DHT22;10421;49.142;9.232;2023-04-25T09:13:27;14.10;94.10
20526;DHT22;10421;49.142;9.232;2023-04-25T09:15:57;14.10;93.90
20526;DHT22;10421;49.142;9.232;2023-04-25T09:18:24;14.10;93.80
20526;DHT22;10421;49.142;9.232;2023-04-25T09:20:53;13.90;93.50
20526;DHT22;10421;49.142;9.232;2023-04-25T09:23:22;13.90;93.20
20526;DHT22;10421;49.142;9.232;2023-04-25T09:25:50;13.60;92.60
20526;DHT22;10421;49.142;9.232;2023-04-25T09:28:23;13.60;92.70
20526;DHT22;10421;49.142;9.232;2023-04-25T09:30:55;13.40;92.90
20526;DHT22;10421;49.142;9.232;2023-04-25T09:33:27;13.40;93.20
20526;DHT22;10421;49.142;9.232;2023-04-25T09:36:02;13.30;93.50
20526;DHT22;10421;49.142;9.232;2023-04-25T09:38:31;13.30;93.90
20526;DHT22;10421;49.142;9.232;2023-04-25T09:40:59;13.20;94.20
20526;DHT22;10421;49.142;9.232;2023-04-25T09:43:27;13.20;94.60
20526;DHT22;10421;49.142;9.232;2023-04-25T09:45:54;13.20;94.90
20526;DHT22;10421;49.142;9.232;2023-04-25T09:48:25;13.20;95.10
20526;DHT22;10421;49.142;9.232;2023-04-25T09:51:04;13.10;95.00
20526;DHT22;10421;49.142;9.232;2023-04-25T09:53:33;13.00;95.00
20526;DHT22;10421;49.142;9.232;2023-04-25T09:56:03;12.80;94.90
20526;DHT22;10421;49.142;9.232;2023-04-25T09:58:31;12.60;95.40
20526;DHT22;10421;49.142;9.232;2023-04-25T10:01:00;12.50;95.60
20526;DHT22;10421;49.142;9.232;2023-04-25T10:03:30;12.50;95.80
20526;DHT22;10421;49.142;9.232;2023-04-25T10:05:59;12.60;95.90
20526;DHT22;10421;49.142;9.232;2023-04-25T10:08:29;12.70;96.00
20526;DHT22;10421;49.142;9.232;2023-04-25T10:11:00;12.70;95.70
20526;DHT22;10421;49.142;9.232;2023-04-25T10:13:28;12.70;95.40
20526;DHT22;10421;49.142;9.232;2023-04-25T10:15:55;12.70;95.40
20526;DHT22;10421;49.142;9.232;2023-04-25T10:18:24;12.70;95.40
20526;DHT22;10421;49.142;9.232;2023-04-25T10:20:53;12.70;95.70
20526;DHT22;10421;49.142;9.232;2023-04-25T10:23:20;12.70;95.70
20526;DHT22;10421;49.142;9.232;2023-04-25T10:25:48;12.80;95.60
20526;DHT22;10421;49.142;9.232;2023-04-25T10:28:17;12.80;95.60
20526;DHT22;10421;49.142;9.232;2023-04-25T10:30:57;12.90;95.50
20526;DHT22;10421;49.142;9.232;2023-04-25T10:33:30;12.90;95.90
20526;DHT22;10421;49.142;9.232;2023-04-25T10:35:58;12.70;96.40
20526;DHT22;10421;49.142;9.232;2023-04-25T10:38:26;12.70;96.40
20526;DHT22;10421;49.142;9.232;2023-04-25T10:41:03;12.60;96.60
20526;DHT22;10421;49.142;9.232;2023-04-25T10:43:36;12.50;96.60
20526;DHT22;10421;49.142;9.232;2023-04-25T10:46:13;12.40;97.30
20526;DHT22;10421;49.142;9.232;2023-04-25T10:48:45;12.30;97.30
20526;DHT22;10421;49.142;9.232;2023-04-25T10:51:18;12.20;97.40
20526;DHT22;10421;49.142;9.232;2023-04-25T10:53:45;12.20;97.70
20526;DHT22;10421;49.142;9.232;2023-04-25T10:56:16;12.00;98.40
20526;DHT22;10421;49.142;9.232;2023-04-25T10:58:45;12.10;98.10
20526;DHT22;10421;49.142;9.232;2023-04-25T11:01:15;12.10;97.90
20526;DHT22;10421;49.142;9.232;2023-04-25T11:03:43;12.10;97.90
20526;DHT22;10421;49.142;9.232;2023-04-25T11:06:20;12.00;98.00
20526;DHT22;10421;49.142;9.232;2023-04-25T11:08:50;12.00;99.30
20526;DHT22;10421;49.142;9.232;2023-04-25T11:11:18;12.10;99.90
20526;DHT22;10421;49.142;9.232;2023-04-25T11:13:49;12.30;99.40
20526;DHT22;10421;49.142;9.232;2023-04-25T11:16:16;12.40;99.10
20526;DHT22;10421;49.142;9.232;2023-04-25T11:18:43;12.40;98.50
20526;DHT22;10421;49.142;9.232;2023-04-25T11:21:11;12.40;98.20
20526;DHT22;10421;49.142;9.232;2023-04-25T11:23:38;12.30;98.80
20526;DHT22;10421;49.142;9.232;2023-04-25T11:26:05;12.20;99.30
20526;DHT22;10421;49.142;9.232;2023-04-25T11:28:32;12.20;99.10
20526;DHT22;10421;49.142;9.232;2023-04-25T11:31:00;12.30;99.70
20526;DHT22;10421;49.142;9.232;2023-04-25T11:33:26;12.30;99.90
20526;DHT22;10421;49.142;9.232;2023-04-25T11:35:54;12.40;99.90
20526;DHT22;10421;49.142;9.232;2023-04-25T11:38:22;12.50;99.90
20526;DHT22;10421;49.142;9.232;2023-04-25T11:40:52;12.80;99.90
20526;DHT22;10421;49.142;9.232;2023-04-25T11:43:20;12.90;98.60
20526;DHT22;10421;49.142;9.232;2023-04-25T11:45:48;12.80;97.50
20526;DHT22;10421;49.142;9.232;2023-04-25T11:48:17;12.80;97.00
20526;DHT22;10421;49.142;9.232;2023-04-25T11:50:44;12.80;97.00
20526;DHT22;10421;49.142;9.232;2023-04-25T11:53:11;12.80;97.10
20526;DHT22;10421;49.142;9.232;2023-04-25T11:55:38;12.80;97.10
20526;DHT22;10421;49.142;9.232;2023-04-25T11:58:05;12.70;97.70
20526;DHT22;10421;49.142;9.232;2023-04-25T12:00:34;12.60;98.50
20526;DHT22;10421;49.142;9.232;2023-04-25T12:03:00;12.80;98.20
20526;DHT22;10421;49.142;9.232;2023-04-25T12:05:30;12.70;97.60
20526;DHT22;10421;49.142;9.232;2023-04-25T12:08:09;12.70;97.90
20526;DHT22;10421;49.142;9.232;2023-04-25T12:10:37;12.60;97.80
20526;DHT22;10421;49.142;9.232;2023-04-25T12:13:18;12.60;97.90
20526;DHT22;10421;49.142;9.232;2023-04-25T12:15:46;12.60;97.60
20526;DHT22;10421;49.142;9.232;2023-04-25T12:18:12;12.50;97.70
20526;DHT22;10421;49.142;9.232;2023-04-25T12:20:41;12.50;97.90
20526;DHT22;10421;49.142;9.232;2023-04-25T12:23:08;12.50;97.60
20526;DHT22;10421;49.142;9.232;2023-04-25T12:25:37;12.50;98.00
20526;DHT22;10421;49.142;9.232;2023-04-25T12:28:14;12.60;98.20
20526;DHT22;10421;49.142;9.232;2023-04-25T12:30:56;12.50;98.90
20526;DHT22;10421;49.142;9.232;2023-04-25T12:33:24;12.60;98.60
20526;DHT22;10421;49.142;9.232;2023-04-25T12:35:52;12.60;98.70
20526;DHT22;10421;49.142;9.232;2023-04-25T12:38:23;12.50;99.20
20526;DHT22;10421;49.142;9.232;2023-04-25T12:40:50;12.50;99.10
20526;DHT22;10421;49.142;9.232;2023-04-25T12:43:17;12.50;99.40
20526;DHT22;10421;49.142;9.232;2023-04-25T12:45:44;12.60;97.60
20526;DHT22;10421;49.142;9.232;2023-04-25T12:48:11;12.80;96.30
20526;DHT22;10421;49.142;9.232;2023-04-25T12:50:37;13.00;94.50
20526;DHT22;10421;49.142;9.232;2023-04-25T12:53:05;13.20;92.90
20526;DHT22;10421;49.142;9.232;2023-04-25T12:55:32;13.40;91.80
20526;DHT22;10421;49.142;9.232;2023-04-25T12:57:59;13.50;91.50
20526;DHT22;10421;49.142;9.232;2023-04-25T13:00:26;13.50;91.10
20526;DHT22;10421;49.142;9.232;2023-04-25T13:02:53;13.60;91.20
20526;DHT22;10421;49.142;9.232;2023-04-25T13:05:23;13.80;91.40
20526;DHT22;10421;49.142;9.232;2023-04-25T13:07:50;14.00;91.10
20526;DHT22;10421;49.142;9.232;2023-04-25T13:10:18;14.10;90.70
20526;DHT22;10421;49.142;9.232;2023-04-25T13:12:45;14.40;90.70
20526;DHT22;10421;49.142;9.232;2023-04-25T13:15:12;14.50;88.90
20526;DHT22;10421;49.142;9.232;2023-04-25T13:17:41;14.70;86.90
20526;DHT22;10421;49.142;9.232;2023-04-25T13:20:09;15.00;85.60
20526;DHT22;10421;49.142;9.232;2023-04-25T13:22:36;15.20;85.70
20526;DHT22;10421;49.142;9.232;2023-04-25T13:25:04;15.30;85.60
20526;DHT22;10421;49.142;9.232;2023-04-25T13:27:33;15.50;85.60
20526;DHT22;10421;49.142;9.232;2023-04-25T13:30:01;15.50;85.20
20526;DHT22;10421;49.142;9.232;2023-04-25T13:32:32;15.60;84.60
20526;DHT22;10421;49.142;9.232;2023-04-25T13:34:59;15.60;83.80
20526;DHT22;10421;49.142;9.232;2023-04-25T13:37:26;15.60;84.50
20526;DHT22;10421;49.142;9.232;2023-04-25T13:39:55;15.60;84.60
20526;DHT22;10421;49.142;9.232;2023-04-25T13:42:22;15.60;84.20
20526;DHT22;10421;49.142;9.232;2023-04-25T13:44:50;15.60;84.50
20526;DHT22;10421;49.142;9.232;2023-04-25T13:47:17;15.60;84.40
20526;DHT22;10421;49.142;9.232;2023-04-25T13:49:44;15.60;83.10
20526;DHT22;10421;49.142;9.232;2023-04-25T13:52:10;15.60;82.90
20526;DHT22;10421;49.142;9.232;2023-04-25T13:54:37;15.60;79.00
20526;DHT22;10421;49.142;9.232;2023-04-25T13:57:04;15.50;76.10
20526;DHT22;10421;49.142;9.232;2023-04-25T13:59:31;15.60;76.10
20526;DHT22;10421;49.142;9.232;2023-04-25T14:01:59;15.70;76.00
20526;DHT22;10421;49.142;9.232;2023-04-25T14:04:26;15.90;76.10
20526;DHT22;10421;49.142;9.232;2023-04-25T14:06:53;16.00;75.40
20526;DHT22;10421;49.142;9.232;2023-04-25T14:09:20;16.10;74.70
20526;DHT22;10421;49.142;9.232;2023-04-25T14:11:50;16.10;74.20
20526;DHT22;10421;49.142;9.232;2023-04-25T14:14:17;16.00;74.20
20526;DHT22;10421;49.142;9.232;2023-04-25T14:16:44;16.10;74.10
20526;DHT22;10421;49.142;9.232;2023-04-25T14:19:12;16.10;74.10
20526;DHT22;10421;49.142;9.232;2023-04-25T14:21:39;16.10;74.20
20526;DHT22;10421;49.142;9.232;2023-04-25T14:24:06;16.20;74.60
20526;DHT22;10421;49.142;9.232;2023-04-25T14:26:33;16.20;74.50
20526;DHT22;10421;49.142;9.232;2023-04-25T14:29:00;16.40;77.00
20526;DHT22;10421;49.142;9.232;2023-04-25T14:31:27;16.50;78.30
20526;DHT22;10421;49.142;9.232;2023-04-25T14:33:54;16.70;77.90
20526;DHT22;10421;49.142;9.232;2023-04-25T14:36:22;16.90;77.60
20526;DHT22;10421;49.142;9.232;2023-04-25T14:38:49;16.90;74.70
20526;DHT22;10421;49.142;9.232;2023-04-25T14:41:15;17.00;73.90
20526;DHT22;10421;49.142;9.232;2023-04-25T14:43:42;17.00;72.60
20526;DHT22;10421;49.142;9.232;2023-04-25T14:46:10;16.90;71.80
20526;DHT22;10421;49.142;9.232;2023-04-25T14:48:37;16.90;69.20
20526;DHT22;10421;49.142;9.232;2023-04-25T14:51:04;17.00;67.80
20526;DHT22;10421;49.142;9.232;2023-04-25T14:53:32;17.10;67.30
20526;DHT22;10421;49.142;9.232;2023-04-25T14:55:59;17.20;67.10
20526;DHT22;10421;49.142;9.232;2023-04-25T14:58:26;17.40;67.40
20526;DHT22;10421;49.142;9.232;2023-04-25T15:00:53;17.50;67.40
20526;DHT22;10421;49.142;9.232;2023-04-25T15:03:20;17.70;68.80
20526;DHT22;10421;49.142;9.232;2023-04-25T15:05:47;18.00;69.20
20526;DHT22;10421;49.142;9.232;2023-04-25T15:08:13;18.10;68.20
20526;DHT22;10421;49.142;9.232;2023-04-25T15:10:42;18.20;66.30
20526;DHT22;10421;49.142;9.232;2023-04-25T15:13:08;18.20;65.00
20526;DHT22;10421;49.142;9.232;2023-04-25T15:15:36;18.20;64.20
20526;DHT22;10421;49.142;9.232;2023-04-25T15:18:03;18.20;64.30
20526;DHT22;10421;49.142;9.232;2023-04-25T15:20:29;18.20;63.90
20526;DHT22;10421;49.142;9.232;2023-04-25T15:22:57;18.10;63.40
20526;DHT22;10421;49.142;9.232;2023-04-25T15:25:24;18.10;63.30
20526;DHT22;10421;49.142;9.232;2023-04-25T15:27:52;18.00;63.90
20526;DHT22;10421;49.142;9.232;2023-04-25T15:30:20;18.00;62.50
20526;DHT22;10421;49.142;9.232;2023-04-25T15:32:47;18.00;62.70